sensor_id;sensor_type;location;lat;lon;timestamp;temperature;humidity
18694;DHT22;9477;51.414;10.362;2023-03-05T00:00:53;5.40;85.20
18694;DHT22;9477;51.414;10.362;2023-03-05T00:02:56;5.50;85.50
18694;DHT22;9477;51.414;10.362;2023-03-05T00:04:59;5.60;85.40
18694;DHT22;9477;51.414;10.362;2023-03-05T00:07:15;5.20;84.40
18694;DHT22;9477;51.414;10.362;2023-03-05T00:09:18;5.60;85.30
18694;DHT22;9477;51.414;10.362;2023-03-05T00:11:21;5.50;84.50
18694;DHT22;9477;51.414;10.362;2023-03-05T00:13:28;5.50;84.80
18694;DHT22;9477;51.414;10.362;2023-03-05T00:15:32;5.40;84.80
18694;DHT22;9477;51.414;10.362;2023-03-05T00:17:35;5.40;84.90
18694;DHT22;9477;51.414;10.362;2023-03-05T00:19:38;5.50;85.30
18694;DHT22;9477;51.414;10.362;2023-03-05T00:21:42;5.50;84.90
18694;DHT22;9477;51.414;10.362;2023-03-05T00:23:45;5.40;84.20
18694;DHT22;9477;51.414;10.362;2023-03-05T00:25:53;5.40;84.60
18694;DHT22;9477;51.414;10.362;2023-03-05T00:27:55;5.30;84.60
18694;DHT22;9477;51.414;10.362;2023-03-05T00:29:58;5.10;84.70
18694;DHT22;9477;51.414;10.362;2023-03-05T00:32:03;5.40;85.30
18694;DHT22;9477;51.414;10.362;2023-03-05T00:34:07;5.30;84.90
18694;DHT22;9477;51.414;10.362;2023-03-05T00:36:10;5.40;85.30
18694;DHT22;9477;51.414;10.362;2023-03-05T00:38:13;5.50;84.90
18694;DHT22;9477;51.414;10.362;2023-03-05T00:40:17;5.70;84.80
18694;DHT22;9477;51.414;10.362;2023-03-05T00:42:20;5.70;84.40
18694;DHT22;9477;51.414;10.362;2023-03-05T00:44:23;5.70;84.20
18694;DHT22;9477;51.414;10.362;2023-03-05T00:46:26;5.60;83.80
18694;DHT22;9477;51.414;10.362;2023-03-05T00:48:30;5.40;83.80
18694;DHT22;9477;51.414;10.362;2023-03-05T00:50:33;5.50;84.40
18694;DHT22;9477;51.414;10.362;2023-03-05T00:52:36;5.60;84.60
18694;DHT22;9477;51.414;10.362;2023-03-05T00:54:39;5.70;85.00
18694;DHT22;9477;51.414;10.362;2023-03-05T00:56:42;5.70;84.70
18694;DHT22;9477;51.414;10.362;2023-03-05T00:58:45;5.90;84.70
18694;DHT22;9477;51.414;10.362;2023-03-05T01:00:48;5.90;84.70
18694;DHT22;9477;51.414;10.362;2023-03-05T01:02:51;6.00;84.70
18694;DHT22;9477;51.414;10.362;2023-03-05T01:04:55;5.60;83.50
18694;DHT22;9477;51.414;10.362;2023-03-05T01:06:58;5.40;83.70
18694;DHT22;9477;51.414;10.362;2023-03-05T01:09:01;5.30;84.20
18694;DHT22;9477;51.414;10.362;2023-03-05T01:11:05;5.10;84.40
18694;DHT22;9477;51.414;10.362;2023-03-05T01:13:08;5.00;84.90
18694;DHT22;9477;51.414;10.362;2023-03-05T01:15:11;4.90;84.70
18694;DHT22;9477;51.414;10.362;2023-03-05T01:17:14;5.10;85.10
18694;DHT22;9477;51.414;10.362;2023-03-05T01:19:17;5.20;85.20
18694;DHT22;9477;51.414;10.362;2023-03-05T01:21:21;5.30;84.60
18694;DHT22;9477;51.414;10.362;2023-03-05T01:23:24;5.50;85.00
18694;DHT22;9477;51.414;10.362;2023-03-05T01:25:27;5.50;84.40
18694;DHT22;9477;51.414;10.362;2023-03-05T01:27:30;5.30;84.10
18694;DHT22;9477;51.414;10.362;2023-03-05T01:29:33;5.00;84.40
18694;DHT22;9477;51.414;10.362;2023-03-05T01:31:37;5.00;85.60
18694;DHT22;9477;51.414;10.362;2023-03-05T01:33:40;4.90;85.90
18694;DHT22;9477;51.414;10.362;2023-03-05T01:35:45;4.90;86.10
18694;DHT22;9477;51.414;10.362;2023-03-05T01:37:49;5.00;86.20
18694;DHT22;9477;51.414;10.362;2023-03-05T01:39:52;4.90;86.20
18694;DHT22;9477;51.414;10.362;2023-03-05T01:41:55;4.80;86.80
18694;DHT22;9477;51.414;10.362;2023-03-05T01:43:58;5.10;86.50
18694;DHT22;9477;51.414;10.362;2023-03-05T01:46:31;5.10;86.40
18694;DHT22;9477;51.414;10.362;2023-03-05T01:48:36;4.90;86.10
18694;DHT22;9477;51.414;10.362;2023-03-05T01:50:39;5.00;86.50
18694;DHT22;9477;51.414;10.362;2023-03-05T01:52:47;4.90;86.80
18694;DHT22;9477;51.414;10.362;2023-03-05T01:54:54;5.20;87.30
18694;DHT22;9477;51.414;10.362;2023-03-05T01:57:00;5.10;86.70
18694;DHT22;9477;51.414;10.362;2023-03-05T01:59:05;4.80;86.60
18694;DHT22;9477;51.414;10.362;2023-03-05T02:01:09;4.50;86.90
18694;DHT22;9477;51.414;10.362;2023-03-05T02:03:12;4.60;88.40
18694;DHT22;9477;51.414;10.362;2023-03-05T02:05:19;4.70;87.60
18694;DHT22;9477;51.414;10.362;2023-03-05T02:07:28;4.70;87.50
18694;DHT22;9477;51.414;10.362;2023-03-05T02:09:37;4.70;87.00
18694;DHT22;9477;51.414;10.362;2023-03-05T02:11:41;4.30;86.60
18694;DHT22;9477;51.414;10.362;2023-03-05T02:13:45;4.80;87.10
18694;DHT22;9477;51.414;10.362;2023-03-05T02:15:48;4.60;86.70
18694;DHT22;9477;51.414;10.362;2023-03-05T02:17:51;5.00;87.30
18694;DHT22;9477;51.414;10.362;2023-03-05T02:19:57;5.00;87.00
18694;DHT22;9477;51.414;10.362;2023-03-05T02:22:13;5.00;87.20
18694;DHT22;9477;51.414;10.362;2023-03-05T02:24:17;5.00;87.40
18694;DHT22;9477;51.414;10.362;2023-03-05T02:26:21;5.00;87.60
18694;DHT22;9477;51.414;10.362;2023-03-05T02:28:27;5.30;88.00
18694;DHT22;9477;51.414;10.362;2023-03-05T02:30:31;5.20;87.40
18694;DHT22;9477;51.414;10.362;2023-03-05T02:32:33;5.10;87.40
18694;DHT22;9477;51.414;10.362;2023-03-05T02:34:36;4.80;87.60
18694;DHT22;9477;51.414;10.362;2023-03-05T02:36:39;4.70;88.00
18694;DHT22;9477;51.414;10.362;2023-03-05T02:38:44;4.40;88.30
18694;DHT22;9477;51.414;10.362;2023-03-05T02:40:48;4.50;88.60
18694;DHT22;9477;51.414;10.362;2023-03-05T02:42:51;4.60;88.20
18694;DHT22;9477;51.414;10.362;2023-03-05T02:44:53;4.80;88.10
18694;DHT22;9477;51.414;10.362;2023-03-05T02:46:56;4.80;88.10
18694;DHT22;9477;51.414;10.362;2023-03-05T02:48:59;5.10;87.40
18694;DHT22;9477;51.414;10.362;2023-03-05T02:51:03;4.80;86.40
18694;DHT22;9477;51.414;10.362;2023-03-05T02:53:07;4.90;86.70
18694;DHT22;9477;51.414;10.362;2023-03-05T02:55:11;5.00;86.70
18694;DHT22;9477;51.414;10.362;2023-03-05T02:57:14;4.90;86.50
18694;DHT22;9477;51.414;10.362;2023-03-05T02:59:17;4.90;86.90
18694;DHT22;9477;51.414;10.362;2023-03-05T03:01:19;5.00;87.20
18694;DHT22;9477;51.414;10.362;2023-03-05T03:03:22;5.10;87.00
18694;DHT22;9477;51.414;10.362;2023-03-05T03:05:25;5.10;86.80
18694;DHT22;9477;51.414;10.362;2023-03-05T03:07:28;5.10;86.40
18694;DHT22;9477;51.414;10.362;2023-03-05T03:09:32;4.80;86.10
18694;DHT22;9477;51.414;10.362;2023-03-05T03:11:37;5.00;86.70
18694;DHT22;9477;51.414;10.362;2023-03-05T03:13:40;5.10;86.90
18694;DHT22;9477;51.414;10.362;2023-03-05T03:15:43;5.00;86.60
18694;DHT22;9477;51.414;10.362;2023-03-05T03:17:46;5.00;86.80
18694;DHT22;9477;51.414;10.362;2023-03-05T03:19:49;4.90;86.70
18694;DHT22;9477;51.414;10.362;2023-03-05T03:21:52;4.80;86.90
18694;DHT22;9477;51.414;10.362;2023-03-05T03:23:55;5.00;87.30
18694;DHT22;9477;51.414;10.362;2023-03-05T03:25:58;5.10;87.00
18694;DHT22;9477;51.414;10.362;2023-03-05T03:28:02;5.10;86.90
18694;DHT22;9477;51.414;10.362;2023-03-05T03:30:06;5.20;86.90
18694;DHT22;9477;51.414;10.362;2023-03-05T03:32:10;5.00;86.30
18694;DHT22;9477;51.414;10.362;2023-03-05T03:34:13;5.10;86.70
18694;DHT22;9477;51.414;10.362;2023-03-05T03:36:17;4.90;86.50
18694;DHT22;9477;51.414;10.362;2023-03-05T03:38:19;4.70;86.80
18694;DHT22;9477;51.414;10.362;2023-03-05T03:40:22;4.90;87.50
18694;DHT22;9477;51.414;10.362;2023-03-05T03:42:25;4.90;86.90
18694;DHT22;9477;51.414;10.362;2023-03-05T03:44:29;4.80;86.80
18694;DHT22;9477;51.414;10.362;2023-03-05T03:46:32;4.90;87.20
18694;DHT22;9477;51.414;10.362;2023-03-05T03:48:35;5.10;87.10
18694;DHT22;9477;51.414;10.362;2023-03-05T03:50:38;4.90;86.20
18694;DHT22;9477;51.414;10.362;2023-03-05T03:52:42;4.90;86.50
18694;DHT22;9477;51.414;10.362;2023-03-05T03:54:45;5.10;86.90
18694;DHT22;9477;51.414;10.362;2023-03-05T03:56:48;5.30;86.90
18694;DHT22;9477;51.414;10.362;2023-03-05T03:58:51;5.40;86.80
18694;DHT22;9477;51.414;10.362;2023-03-05T04:00:55;5.40;86.10
18694;DHT22;9477;51.414;10.362;2023-03-05T04:02:58;5.30;85.90
18694;DHT22;9477;51.414;10.362;2023-03-05T04:05:01;5.20;86.30
18694;DHT22;9477;51.414;10.362;2023-03-05T04:07:04;4.90;86.40
18694;DHT22;9477;51.414;10.362;2023-03-05T04:09:07;4.70;86.80
18694;DHT22;9477;51.414;10.362;2023-03-05T04:11:10;4.60;87.30
18694;DHT22;9477;51.414;10.362;2023-03-05T04:13:13;4.70;87.40
18694;DHT22;9477;51.414;10.362;2023-03-05T04:15:16;4.80;87.80
18694;DHT22;9477;51.414;10.362;2023-03-05T04:17:21;5.10;87.70
18694;DHT22;9477;51.414;10.362;2023-03-05T04:19:23;5.30;88.00
18694;DHT22;9477;51.414;10.362;2023-03-05T04:21:28;5.50;87.60
18694;DHT22;9477;51.414;10.362;2023-03-05T04:23:31;5.70;87.30
18694;DHT22;9477;51.414;10.362;2023-03-05T04:25:34;5.70;86.50
18694;DHT22;9477;51.414;10.362;2023-03-05T04:27:37;5.70;86.60
18694;DHT22;9477;51.414;10.362;2023-03-05T04:29:41;5.70;86.50
18694;DHT22;9477;51.414;10.362;2023-03-05T04:31:43;5.70;86.50
18694;DHT22;9477;51.414;10.362;2023-03-05T04:33:48;5.60;86.50
18694;DHT22;9477;51.414;10.362;2023-03-05T04:35:50;5.50;86.30
18694;DHT22;9477;51.414;10.362;2023-03-05T04:37:53;5.30;86.60
18694;DHT22;9477;51.414;10.362;2023-03-05T04:39:56;5.40;87.00
18694;DHT22;9477;51.414;10.362;2023-03-05T04:41:59;5.40;87.20
18694;DHT22;9477;51.414;10.362;2023-03-05T04:44:02;5.30;87.30
18694;DHT22;9477;51.414;10.362;2023-03-05T04:46:05;5.10;87.50
18694;DHT22;9477;51.414;10.362;2023-03-05T04:48:08;5.20;88.00
18694;DHT22;9477;51.414;10.362;2023-03-05T04:50:13;5.20;88.00
18694;DHT22;9477;51.414;10.362;2023-03-05T04:52:16;5.40;88.10
18694;DHT22;9477;51.414;10.362;2023-03-05T04:54:19;5.50;88.10
18694;DHT22;9477;51.414;10.362;2023-03-05T04:56:22;5.50;87.80
18694;DHT22;9477;51.414;10.362;2023-03-05T04:58:25;5.60;87.60
18694;DHT22;9477;51.414;10.362;2023-03-05T05:00:29;5.50;87.70
18694;DHT22;9477;51.414;10.362;2023-03-05T05:02:32;5.40;88.00
18694;DHT22;9477;51.414;10.362;2023-03-05T05:04:36;5.60;88.40
18694;DHT22;9477;51.414;10.362;2023-03-05T05:06:40;5.40;87.90
18694;DHT22;9477;51.414;10.362;2023-03-05T05:08:43;5.40;88.20
18694;DHT22;9477;51.414;10.362;2023-03-05T05:10:45;5.50;88.70
18694;DHT22;9477;51.414;10.362;2023-03-05T05:12:56;5.50;88.40
18694;DHT22;9477;51.414;10.362;2023-03-05T05:14:59;5.50;88.20
18694;DHT22;9477;51.414;10.362;2023-03-05T05:17:02;5.50;88.70
18694;DHT22;9477;51.414;10.362;2023-03-05T05:19:05;5.20;88.60
18694;DHT22;9477;51.414;10.362;2023-03-05T05:21:10;5.00;88.90
18694;DHT22;9477;51.414;10.362;2023-03-05T05:23:14;5.30;89.40
18694;DHT22;9477;51.414;10.362;2023-03-05T05:25:17;5.50;89.30
18694;DHT22;9477;51.414;10.362;2023-03-05T05:27:20;5.20;88.70
18694;DHT22;9477;51.414;10.362;2023-03-05T05:29:23;5.30;89.10
18694;DHT22;9477;51.414;10.362;2023-03-05T05:31:26;5.30;89.50
18694;DHT22;9477;51.414;10.362;2023-03-05T05:33:29;5.20;89.60
18694;DHT22;9477;51.414;10.362;2023-03-05T05:35:32;5.10;89.70
18694;DHT22;9477;51.414;10.362;2023-03-05T05:37:35;5.30;89.50
18694;DHT22;9477;51.414;10.362;2023-03-05T05:39:39;5.20;89.40
18694;DHT22;9477;51.414;10.362;2023-03-05T05:41:42;5.40;89.80
18694;DHT22;9477;51.414;10.362;2023-03-05T05:43:45;5.50;89.50
18694;DHT22;9477;51.414;10.362;2023-03-05T05:45:48;5.50;89.60
18694;DHT22;9477;51.414;10.362;2023-03-05T05:47:51;5.10;89.60
18694;DHT22;9477;51.414;10.362;2023-03-05T05:49:54;5.20;90.00
18694;DHT22;9477;51.414;10.362;2023-03-05T05:51:57;5.40;90.20
18694;DHT22;9477;51.414;10.362;2023-03-05T05:54:00;5.50;90.10
18694;DHT22;9477;51.414;10.362;2023-03-05T05:56:06;4.90;89.20
18694;DHT22;9477;51.414;10.362;2023-03-05T05:58:09;5.30;89.70
18694;DHT22;9477;51.414;10.362;2023-03-05T06:00:13;5.30;90.00
18694;DHT22;9477;51.414;10.362;2023-03-05T06:02:16;5.20;90.00
18694;DHT22;9477;51.414;10.362;2023-03-05T06:04:20;5.00;90.00
18694;DHT22;9477;51.414;10.362;2023-03-05T06:06:24;4.90;90.20
18694;DHT22;9477;51.414;10.362;2023-03-05T06:08:27;5.10;90.50
18694;DHT22;9477;51.414;10.362;2023-03-05T06:10:30;5.30;90.30
18694;DHT22;9477;51.414;10.362;2023-03-05T06:12:34;5.40;90.00
18694;DHT22;9477;51.414;10.362;2023-03-05T06:14:37;5.60;90.00
18694;DHT22;9477;51.414;10.362;2023-03-05T06:16:40;5.40;89.70
18694;DHT22;9477;51.414;10.362;2023-03-05T06:18:43;5.40;90.00
18694;DHT22;9477;51.414;10.362;2023-03-05T06:20:53;5.40;89.80
18694;DHT22;9477;51.414;10.362;2023-03-05T06:22:55;5.40;90.00
18694;DHT22;9477;51.414;10.362;2023-03-05T06:24:58;5.60;90.10
18694;DHT22;9477;51.414;10.362;2023-03-05T06:27:02;5.40;90.00
18694;DHT22;9477;51.414;10.362;2023-03-05T06:29:06;5.10;89.70
18694;DHT22;9477;51.414;10.362;2023-03-05T06:31:11;5.20;90.20
18694;DHT22;9477;51.414;10.362;2023-03-05T06:33:14;5.40;90.50
18694;DHT22;9477;51.414;10.362;2023-03-05T06:35:16;5.50;90.20
18694;DHT22;9477;51.414;10.362;2023-03-05T06:37:19;5.40;90.10
18694;DHT22;9477;51.414;10.362;2023-03-05T06:39:22;5.30;90.10
18694;DHT22;9477;51.414;10.362;2023-03-05T06:41:27;5.10;90.50
18694;DHT22;9477;51.414;10.362;2023-03-05T06:43:30;5.10;90.40
18694;DHT22;9477;51.414;10.362;2023-03-05T06:45:35;5.20;90.60
18694;DHT22;9477;51.414;10.362;2023-03-05T06:47:38;5.10;90.50
18694;DHT22;9477;51.414;10.362;2023-03-05T06:49:41;5.20;90.50
18694;DHT22;9477;51.414;10.362;2023-03-05T06:51:43;5.00;90.40
18694;DHT22;9477;51.414;10.362;2023-03-05T06:53:47;5.20;90.40
18694;DHT22;9477;51.414;10.362;2023-03-05T06:55:51;5.20;90.60
18694;DHT22;9477;51.414;10.362;2023-03-05T06:57:54;5.10;90.40
18694;DHT22;9477;51.414;10.362;2023-03-05T06:59:57;5.00;90.50
18694;DHT22;9477;51.414;10.362;2023-03-05T07:02:01;5.20;90.60
18694;DHT22;9477;51.414;10.362;2023-03-05T07:04:04;5.10;90.50
18694;DHT22;9477;51.414;10.362;2023-03-05T07:06:09;5.20;90.70
18694;DHT22;9477;51.414;10.362;2023-03-05T07:08:13;5.10;90.50
18694;DHT22;9477;51.414;10.362;2023-03-05T07:10:16;5.20;90.40
18694;DHT22;9477;51.414;10.362;2023-03-05T07:12:19;5.30;90.30
18694;DHT22;9477;51.414;10.362;2023-03-05T07:14:22;5.40;90.40
18694;DHT22;9477;51.414;10.362;2023-03-05T07:16:27;5.20;90.20
18694;DHT22;9477;51.414;10.362;2023-03-05T07:18:32;5.60;90.40
18694;DHT22;9477;51.414;10.362;2023-03-05T07:20:36;5.40;90.10
18694;DHT22;9477;51.414;10.362;2023-03-05T07:22:39;5.40;90.10
18694;DHT22;9477;51.414;10.362;2023-03-05T07:24:42;5.60;90.30
18694;DHT22;9477;51.414;10.362;2023-03-05T07:26:44;5.90;90.30
18694;DHT22;9477;51.414;10.362;2023-03-05T07:28:49;5.50;89.60
18694;DHT22;9477;51.414;10.362;2023-03-05T07:30:56;5.70;90.00
18694;DHT22;9477;51.414;10.362;2023-03-05T07:32:59;5.80;90.20
18694;DHT22;9477;51.414;10.362;2023-03-05T07:35:04;5.90;90.10
18694;DHT22;9477;51.414;10.362;2023-03-05T07:37:07;5.90;90.00
18694;DHT22;9477;51.414;10.362;2023-03-05T07:39:11;5.80;89.70
18694;DHT22;9477;51.414;10.362;2023-03-05T07:41:15;6.00;89.90
18694;DHT22;9477;51.414;10.362;2023-03-05T07:43:20;6.00;89.90
18694;DHT22;9477;51.414;10.362;2023-03-05T07:45:23;5.80;89.30
18694;DHT22;9477;51.414;10.362;2023-03-05T07:47:25;5.80;89.60
18694;DHT22;9477;51.414;10.362;2023-03-05T07:49:28;5.70;89.90
18694;DHT22;9477;51.414;10.362;2023-03-05T07:51:32;5.70;90.00
18694;DHT22;9477;51.414;10.362;2023-03-05T07:53:35;6.00;90.30
18694;DHT22;9477;51.414;10.362;2023-03-05T07:55:41;6.10;90.00
18694;DHT22;9477;51.414;10.362;2023-03-05T07:57:44;5.90;89.40
18694;DHT22;9477;51.414;10.362;2023-03-05T07:59:47;5.80;89.20
18694;DHT22;9477;51.414;10.362;2023-03-05T08:01:50;5.90;88.90
18694;DHT22;9477;51.414;10.362;2023-03-05T08:03:53;6.10;89.50
18694;DHT22;9477;51.414;10.362;2023-03-05T08:05:56;6.00;89.00
18694;DHT22;9477;51.414;10.362;2023-03-05T08:08:00;5.90;89.40
18694;DHT22;9477;51.414;10.362;2023-03-05T08:10:04;5.70;89.70
18694;DHT22;9477;51.414;10.362;2023-03-05T08:12:07;6.10;90.20
18694;DHT22;9477;51.414;10.362;2023-03-05T08:14:11;5.60;89.00
18694;DHT22;9477;51.414;10.362;2023-03-05T08:16:15;5.50;89.20
18694;DHT22;9477;51.414;10.362;2023-03-05T08:18:19;5.60;90.00
18694;DHT22;9477;51.414;10.362;2023-03-05T08:20:22;5.80;90.20
18694;DHT22;9477;51.414;10.362;2023-03-05T08:22:25;6.00;90.20
18694;DHT22;9477;51.414;10.362;2023-03-05T08:24:29;5.60;89.00
18694;DHT22;9477;51.414;10.362;2023-03-05T08:26:34;5.80;89.60
18694;DHT22;9477;51.414;10.362;2023-03-05T08:28:38;5.40;89.10
18694;DHT22;9477;51.414;10.362;2023-03-05T08:30:41;5.50;89.50
18694;DHT22;9477;51.414;10.362;2023-03-05T08:32:44;5.60;90.00
18694;DHT22;9477;51.414;10.362;2023-03-05T08:34:47;5.60;90.00
18694;DHT22;9477;51.414;10.362;2023-03-05T08:36:50;5.60;89.90
18694;DHT22;9477;51.414;10.362;2023-03-05T08:38:53;6.00;90.10
18694;DHT22;9477;51.414;10.362;2023-03-05T08:40:57;6.10;89.80
18694;DHT22;9477;51.414;10.362;2023-03-05T08:43:00;5.70;88.90
18694;DHT22;9477;51.414;10.362;2023-03-05T08:45:06;6.00;90.00
18694;DHT22;9477;51.414;10.362;2023-03-05T08:47:09;5.80;89.10
18694;DHT22;9477;51.414;10.362;2023-03-05T08:49:12;6.00;89.40
18694;DHT22;9477;51.414;10.362;2023-03-05T08:51:17;5.80;88.60
18694;DHT22;9477;51.414;10.362;2023-03-05T08:53:20;6.00;89.10
18694;DHT22;9477;51.414;10.362;2023-03-05T08:55:23;5.70;88.50
18694;DHT22;9477;51.414;10.362;2023-03-05T08:57:27;5.90;89.10
18694;DHT22;9477;51.414;10.362;2023-03-05T08:59:30;5.80;89.40
18694;DHT22;9477;51.414;10.362;2023-03-05T09:01:32;6.00;89.50
18694;DHT22;9477;51.414;10.362;2023-03-05T09:03:36;6.10;88.90
18694;DHT22;9477;51.414;10.362;2023-03-05T09:05:39;6.50;89.70
18694;DHT22;9477;51.414;10.362;2023-03-05T09:07:42;6.70;89.20
18694;DHT22;9477;51.414;10.362;2023-03-05T09:09:45;6.70;87.90
18694;DHT22;9477;51.414;10.362;2023-03-05T09:11:48;6.70;87.60
18694;DHT22;9477;51.414;10.362;2023-03-05T09:13:54;6.60;87.10
18694;DHT22;9477;51.414;10.362;2023-03-05T09:15:58;6.60;86.70
18694;DHT22;9477;51.414;10.362;2023-03-05T09:18:01;6.40;87.10
18694;DHT22;9477;51.414;10.362;2023-03-05T09:20:05;6.20;87.30
18694;DHT22;9477;51.414;10.362;2023-03-05T09:22:08;6.20;87.40
18694;DHT22;9477;51.414;10.362;2023-03-05T09:24:12;6.20;87.20
18694;DHT22;9477;51.414;10.362;2023-03-05T09:26:16;6.30;87.10
18694;DHT22;9477;51.414;10.362;2023-03-05T09:28:21;6.30;87.20
18694;DHT22;9477;51.414;10.362;2023-03-05T09:30:25;6.40;87.20
18694;DHT22;9477;51.414;10.362;2023-03-05T09:32:28;6.20;86.70
18694;DHT22;9477;51.414;10.362;2023-03-05T09:34:31;6.40;87.40
18694;DHT22;9477;51.414;10.362;2023-03-05T09:36:35;6.50;87.50
18694;DHT22;9477;51.414;10.362;2023-03-05T09:38:38;6.50;87.60
18694;DHT22;9477;51.414;10.362;2023-03-05T09:40:47;6.00;86.20
18694;DHT22;9477;51.414;10.362;2023-03-05T09:43:02;6.00;87.20
18694;DHT22;9477;51.414;10.362;2023-03-05T09:45:17;6.00;88.10
18694;DHT22;9477;51.414;10.362;2023-03-05T09:47:39;6.20;88.00
18694;DHT22;9477;51.414;10.362;2023-03-05T09:49:51;6.40;88.20
18694;DHT22;9477;51.414;10.362;2023-03-05T09:52:02;6.40;87.20
18694;DHT22;9477;51.414;10.362;2023-03-05T09:54:12;6.40;87.40
18694;DHT22;9477;51.414;10.362;2023-03-05T09:56:19;6.50;87.80
18694;DHT22;9477;51.414;10.362;2023-03-05T09:58:32;6.60;87.20
18694;DHT22;9477;51.414;10.362;2023-03-05T10:00:38;6.50;86.40
18694;DHT22;9477;51.414;10.362;2023-03-05T10:02:47;6.60;86.60
18694;DHT22;9477;51.414;10.362;2023-03-05T10:04:54;6.90;86.70
18694;DHT22;9477;51.414;10.362;2023-03-05T10:07:00;6.90;86.50
18694;DHT22;9477;51.414;10.362;2023-03-05T10:09:14;6.50;85.70
18694;DHT22;9477;51.414;10.362;2023-03-05T10:11:33;6.70;85.80
18694;DHT22;9477;51.414;10.362;2023-03-05T10:13:41;6.60;85.90
18694;DHT22;9477;51.414;10.362;2023-03-05T10:15:54;6.90;86.20
18694;DHT22;9477;51.414;10.362;2023-03-05T10:18:11;7.20;86.50
18694;DHT22;9477;51.414;10.362;2023-03-05T10:20:31;7.30;85.30
18694;DHT22;9477;51.414;10.362;2023-03-05T10:22:46;7.20;83.40
18694;DHT22;9477;51.414;10.362;2023-03-05T10:25:02;6.60;83.10
18694;DHT22;9477;51.414;10.362;2023-03-05T10:27:13;6.70;84.30
18694;DHT22;9477;51.414;10.362;2023-03-05T10:29:41;6.80;85.00
18694;DHT22;9477;51.414;10.362;2023-03-05T10:31:56;6.90;84.70
18694;DHT22;9477;51.414;10.362;2023-03-05T10:34:31;6.80;85.10
18694;DHT22;9477;51.414;10.362;2023-03-05T10:36:49;7.20;86.40
18694;DHT22;9477;51.414;10.362;2023-03-05T10:39:31;7.30;86.80
18694;DHT22;9477;51.414;10.362;2023-03-05T10:41:43;7.20;85.60
18694;DHT22;9477;51.414;10.362;2023-03-05T10:43:52;7.30;85.90
18694;DHT22;9477;51.414;10.362;2023-03-05T10:45:57;6.90;86.20
18694;DHT22;9477;51.414;10.362;2023-03-05T10:48:06;7.10;87.30
18694;DHT22;9477;51.414;10.362;2023-03-05T10:50:18;7.10;87.40
18694;DHT22;9477;51.414;10.362;2023-03-05T10:52:26;7.40;87.80
18694;DHT22;9477;51.414;10.362;2023-03-05T10:54:32;7.50;87.30
18694;DHT22;9477;51.414;10.362;2023-03-05T10:56:38;7.30;87.60
18694;DHT22;9477;51.414;10.362;2023-03-05T10:58:41;7.40;87.30
18694;DHT22;9477;51.414;10.362;2023-03-05T11:00:58;7.40;86.70
18694;DHT22;9477;51.414;10.362;2023-03-05T11:03:03;7.60;86.80
18694;DHT22;9477;51.414;10.362;2023-03-05T11:05:35;7.10;85.90
18694;DHT22;9477;51.414;10.362;2023-03-05T11:07:40;7.40;86.40
18694;DHT22;9477;51.414;10.362;2023-03-05T11:10:01;7.30;86.20
18694;DHT22;9477;51.414;10.362;2023-03-05T11:12:13;7.50;86.40
18694;DHT22;9477;51.414;10.362;2023-03-05T11:14:24;7.60;86.30
18694;DHT22;9477;51.414;10.362;2023-03-05T11:16:33;7.70;85.80
18694;DHT22;9477;51.414;10.362;2023-03-05T11:18:36;7.70;85.50
18694;DHT22;9477;51.414;10.362;2023-03-05T11:20:41;7.70;85.30
18694;DHT22;9477;51.414;10.362;2023-03-05T11:23:01;8.30;86.20
18694;DHT22;9477;51.414;10.362;2023-03-05T11:25:13;8.50;85.40
18694;DHT22;9477;51.414;10.362;2023-03-05T11:27:29;8.50;83.80
18694;DHT22;9477;51.414;10.362;2023-03-05T11:29:33;8.10;83.50
18694;DHT22;9477;51.414;10.362;2023-03-05T11:31:36;8.10;83.00
18694;DHT22;9477;51.414;10.362;2023-03-05T11:33:39;8.20;83.20
18694;DHT22;9477;51.414;10.362;2023-03-05T11:36:21;8.20;83.60
18694;DHT22;9477;51.414;10.362;2023-03-05T11:38:26;8.00;82.90
18694;DHT22;9477;51.414;10.362;2023-03-05T11:40:30;8.20;83.20
18694;DHT22;9477;51.414;10.362;2023-03-05T11:42:33;7.90;82.00
18694;DHT22;9477;51.414;10.362;2023-03-05T11:44:42;8.20;83.50
18694;DHT22;9477;51.414;10.362;2023-03-05T11:46:49;8.30;82.80
18694;DHT22;9477;51.414;10.362;2023-03-05T11:48:55;7.70;81.00
18694;DHT22;9477;51.414;10.362;2023-03-05T11:51:02;7.70;82.50
18694;DHT22;9477;51.414;10.362;2023-03-05T11:53:14;8.00;83.30
18694;DHT22;9477;51.414;10.362;2023-03-05T11:55:21;7.60;81.70
18694;DHT22;9477;51.414;10.362;2023-03-05T11:57:28;7.90;82.30
18694;DHT22;9477;51.414;10.362;2023-03-05T11:59:36;8.10;82.40
18694;DHT22;9477;51.414;10.362;2023-03-05T12:01:44;8.30;82.70
18694;DHT22;9477;51.414;10.362;2023-03-05T12:03:48;8.10;81.00
18694;DHT22;9477;51.414;10.362;2023-03-05T12:05:55;8.20;80.90
18694;DHT22;9477;51.414;10.362;2023-03-05T12:08:00;8.40;82.40
18694;DHT22;9477;51.414;10.362;2023-03-05T12:10:06;8.90;82.00
18694;DHT22;9477;51.414;10.362;2023-03-05T12:12:26;8.90;81.00
18694;DHT22;9477;51.414;10.362;2023-03-05T12:14:41;8.90;80.20
18694;DHT22;9477;51.414;10.362;2023-03-05T12:16:50;8.50;79.40
18694;DHT22;9477;51.414;10.362;2023-03-05T12:19:01;8.40;79.80
18694;DHT22;9477;51.414;10.362;2023-03-05T12:21:16;8.50;80.50
18694;DHT22;9477;51.414;10.362;2023-03-05T12:23:22;8.00;78.90
18694;DHT22;9477;51.414;10.362;2023-03-05T12:25:32;8.00;79.70
18694;DHT22;9477;51.414;10.362;2023-03-05T12:27:35;8.10;79.80
18694;DHT22;9477;51.414;10.362;2023-03-05T12:29:42;7.90;79.00
18694;DHT22;9477;51.414;10.362;2023-03-05T12:31:45;8.10;79.10
18694;DHT22;9477;51.414;10.362;2023-03-05T12:33:49;8.10;79.40
18694;DHT22;9477;51.414;10.362;2023-03-05T12:35:52;8.00;78.40
18694;DHT22;9477;51.414;10.362;2023-03-05T12:40:31;8.10;80.10
18694;DHT22;9477;51.414;10.362;2023-03-05T12:42:54;8.50;80.30
18694;DHT22;9477;51.414;10.362;2023-03-05T12:45:25;8.20;78.30
18694;DHT22;9477;51.414;10.362;2023-03-05T12:47:28;8.30;78.50
18694;DHT22;9477;51.414;10.362;2023-03-05T12:49:36;7.90;77.60
18694;DHT22;9477;51.414;10.362;2023-03-05T12:51:39;8.10;79.20
18694;DHT22;9477;51.414;10.362;2023-03-05T12:53:43;8.20;78.30
18694;DHT22;9477;51.414;10.362;2023-03-05T12:55:55;8.00;77.60
18694;DHT22;9477;51.414;10.362;2023-03-05T12:58:02;7.80;78.10
18694;DHT22;9477;51.414;10.362;2023-03-05T13:00:09;7.80;77.70
18694;DHT22;9477;51.414;10.362;2023-03-05T13:02:24;7.70;77.30
18694;DHT22;9477;51.414;10.362;2023-03-05T13:04:29;7.70;77.30
18694;DHT22;9477;51.414;10.362;2023-03-05T13:06:34;7.60;78.10
18694;DHT22;9477;51.414;10.362;2023-03-05T13:08:37;7.50;77.10
18694;DHT22;9477;51.414;10.362;2023-03-05T13:10:40;7.10;77.30
18694;DHT22;9477;51.414;10.362;2023-03-05T13:12:49;7.00;78.40
18694;DHT22;9477;51.414;10.362;2023-03-05T13:14:58;6.90;79.40
18694;DHT22;9477;51.414;10.362;2023-03-05T13:17:33;6.80;79.40
18694;DHT22;9477;51.414;10.362;2023-03-05T13:19:40;7.20;79.20
18694;DHT22;9477;51.414;10.362;2023-03-05T13:21:43;6.90;78.70
18694;DHT22;9477;51.414;10.362;2023-03-05T13:23:48;7.10;78.80
18694;DHT22;9477;51.414;10.362;2023-03-05T13:26:00;7.10;79.20
18694;DHT22;9477;51.414;10.362;2023-03-05T13:28:11;7.00;79.50